createdAt,value
2022-09-15T00:01:27.213Z,75.91
2022-09-15T00:03:55.238Z,75.94
2022-09-15T00:06:23.255Z,76.03
2022-09-15T00:08:51.248Z,76.05
2022-09-15T00:11:25.969Z,76.02
2022-09-15T00:14:00.375Z,76.19
2022-09-15T00:16:31.131Z,76.25
2022-09-15T00:19:00.548Z,76.28
2022-09-15T00:21:32.059Z,76.38
2022-09-15T00:24:01.629Z,76.44
2022-09-15T00:26:31.403Z,76.55
2022-09-15T00:29:01.143Z,76.62
2022-09-15T00:31:30.901Z,76.58
2022-09-15T00:34:02.659Z,76.58
2022-09-15T00:36:31.284Z,76.63
2022-09-15T00:38:59.351Z,76.86
2022-09-15T00:41:27.439Z,76.95
2022-09-15T00:44:18.377Z,77.11
2022-09-15T00:47:09.403Z,77.17
2022-09-15T00:49:40.593Z,77.32
2022-09-15T00:52:37.681Z,77.48
2022-09-15T00:55:31.790Z,77.53
2022-09-15T00:57:59.659Z,77.59
2022-09-15T01:00:28.764Z,77.79
2022-09-15T01:02:58.056Z,77.81
2022-09-15T01:05:34.775Z,77.87
2022-09-15T01:08:16.431Z,77.79
2022-09-15T01:10:46.687Z,77.75
2022-09-15T01:13:15.178Z,77.86
2022-09-15T01:16:06.046Z,78.00
2022-09-15T01:18:51.848Z,78.15
2022-09-15T01:21:31.902Z,78.16
2022-09-15T01:24:15.074Z,78.18
2022-09-15T01:27:18.487Z,78.34
2022-09-15T01:29:51.978Z,78.48
2022-09-15T01:32:53.674Z,78.57
2022-09-15T01:35:48.772Z,78.38
2022-09-15T01:38:19.812Z,78.40
2022-09-15T01:40:59.103Z,78.40
2022-09-15T01:43:29.854Z,78.34
2022-09-15T01:46:00.372Z,78.32
2022-09-15T01:48:30.186Z,78.44
2022-09-15T01:51:02.477Z,78.52
2022-09-15T01:53:30.510Z,78.70
2022-09-15T01:56:06.948Z,78.98
2022-09-15T01:58:37.100Z,79.01
2022-09-15T02:02:13.658Z,79.04
2022-09-15T02:04:47.079Z,79.20
2022-09-15T02:07:39.154Z,79.35
2022-09-15T02:10:34.239Z,79.53
2022-09-15T02:13:18.044Z,79.59
2022-09-15T02:15:54.308Z,79.60
2022-09-15T02:18:48.963Z,79.69
2022-09-15T02:21:22.264Z,79.91
2022-09-15T02:23:57.219Z,80.11
2022-09-15T02:26:28.854Z,80.24
2022-09-15T02:29:00.479Z,80.45
2022-09-15T02:31:33.203Z,80.61
2022-09-15T02:34:07.829Z,80.88
2022-09-15T02:36:36.375Z,81.01
2022-09-15T02:39:08.246Z,81.13
2022-09-15T02:41:37.465Z,81.02
2022-09-15T02:44:08.655Z,80.97
2022-09-15T02:46:37.064Z,80.85
2022-09-15T02:49:05.042Z,81.10
2022-09-15T02:51:33.652Z,81.42
2022-09-15T02:54:02.096Z,81.47
2022-09-15T02:56:30.019Z,81.32
2022-09-15T02:58:58.057Z,81.62
2022-09-15T03:01:34.817Z,81.49
2022-09-15T03:04:04.167Z,81.05
2022-09-15T03:06:34.898Z,80.89
2022-09-15T03:09:07.142Z,80.87
2022-09-15T03:11:36.762Z,80.93
2022-09-15T03:14:06.595Z,80.91
2022-09-15T03:16:35.771Z,80.66
2022-09-15T03:19:04.773Z,80.75
2022-09-15T03:21:32.856Z,80.69
2022-09-15T03:24:01.054Z,80.37
2022-09-15T03:26:29.316Z,80.15
2022-09-15T03:28:57.237Z,79.99
2022-09-15T03:31:25.226Z,79.71
2022-09-15T03:33:56.066Z,79.27
2022-09-15T03:36:24.211Z,79.09
2022-09-15T03:38:52.829Z,79.10
2022-09-15T03:41:21.011Z,79.21
2022-09-15T03:43:48.873Z,79.56
2022-09-15T03:46:16.920Z,79.62
2022-09-15T03:48:45.353Z,79.95
2022-09-15T03:51:14.312Z,80.05
2022-09-15T03:53:42.979Z,80.26
2022-09-15T03:56:26.578Z,80.29
2022-09-15T03:58:54.695Z,80.73
2022-09-15T04:01:23.574Z,81.21
2022-09-15T04:03:51.764Z,81.73
2022-09-15T04:06:21.578Z,82.02
2022-09-15T04:08:51.034Z,82.10
2022-09-15T04:11:20.317Z,82.11
2022-09-15T04:13:49.152Z,81.95
2022-09-15T04:16:23.414Z,81.84
2022-09-15T04:18:55.571Z,81.81
2022-09-15T04:21:26.805Z,81.59
2022-09-15T04:23:55.030Z,81.39
2022-09-15T04:26:31.351Z,81.03
2022-09-15T04:29:03.877Z,80.64
2022-09-15T04:31:33.538Z,80.20
2022-09-15T04:34:01.827Z,79.91
2022-09-15T04:36:29.833Z,79.61
2022-09-15T04:38:58.319Z,79.37
2022-09-15T04:41:27.295Z,79.02
2022-09-15T04:43:55.595Z,78.83
2022-09-15T04:46:23.661Z,78.60
2022-09-15T04:48:52.230Z,78.05
2022-09-15T04:51:22.457Z,77.85
2022-09-15T04:53:52.122Z,77.69
2022-09-15T04:56:23.351Z,77.33
2022-09-15T04:59:02.520Z,76.16
2022-09-15T05:01:35.292Z,75.63
2022-09-15T05:04:04.336Z,75.68
2022-09-15T05:06:34.848Z,75.75
2022-09-15T05:09:09.727Z,76.18
2022-09-15T05:11:40.818Z,76.82
2022-09-15T05:14:11.188Z,77.05
2022-09-15T05:16:40.318Z,77.20
2022-09-15T05:19:11.349Z,77.12
2022-09-15T05:21:39.285Z,76.82
2022-09-15T05:24:07.489Z,76.57
2022-09-15T05:26:35.463Z,76.41
2022-09-15T05:29:03.407Z,76.18
2022-09-15T05:31:34.706Z,76.11
2022-09-15T05:34:05.446Z,75.99
2022-09-15T05:36:34.049Z,75.86
2022-09-15T05:39:02.169Z,75.90
2022-09-15T05:41:31.002Z,75.81
2022-09-15T05:43:59.331Z,75.20
2022-09-15T05:46:27.989Z,74.20
2022-09-15T05:48:58.055Z,73.50
2022-09-15T05:51:26.469Z,73.71
2022-09-15T05:53:54.373Z,74.27
2022-09-15T05:56:22.302Z,74.76
2022-09-15T05:58:50.279Z,75.15
2022-09-15T06:01:26.841Z,75.32
2022-09-15T06:03:56.377Z,75.73
2022-09-15T06:06:26.060Z,75.90
2022-09-15T06:08:58.517Z,76.04
2022-09-15T06:11:30.147Z,76.55
2022-09-15T06:14:03.441Z,76.79
2022-09-15T06:16:36.029Z,77.01
2022-09-15T06:19:04.249Z,77.36
2022-09-15T06:21:33.391Z,77.19
2022-09-15T06:24:04.557Z,77.38
2022-09-15T06:26:33.282Z,77.25
2022-09-15T06:29:02.938Z,77.22
2022-09-15T06:31:32.984Z,77.32
2022-09-15T06:34:01.759Z,77.41
2022-09-15T06:36:31.052Z,77.49
2022-09-15T06:38:59.202Z,77.52
2022-09-15T06:41:38.267Z,77.65
2022-09-15T06:44:15.016Z,77.30
2022-09-15T06:46:43.196Z,76.99
2022-09-15T06:49:11.231Z,76.71
2022-09-15T06:51:39.068Z,76.43
2022-09-15T06:54:07.180Z,76.21
2022-09-15T06:56:38.097Z,76.07
2022-09-15T06:59:06.719Z,75.85
2022-09-15T07:01:40.963Z,75.57
2022-09-15T07:04:09.859Z,75.38
2022-09-15T07:06:39.902Z,75.20
2022-09-15T07:09:08.489Z,74.91
2022-09-15T07:11:36.504Z,74.64
2022-09-15T07:14:05.225Z,74.47
2022-09-15T07:16:33.780Z,74.28
2022-09-15T07:19:03.729Z,73.86
2022-09-15T07:21:31.829Z,73.60
2022-09-15T07:24:02.699Z,73.64
2022-09-15T07:26:34.636Z,73.55
2022-09-15T07:29:05.540Z,73.41
2022-09-15T07:31:36.027Z,73.12
2022-09-15T07:34:04.860Z,72.93
2022-09-15T07:36:32.906Z,72.94
2022-09-15T07:39:00.899Z,72.91
2022-09-15T07:41:30.996Z,72.80
2022-09-15T07:44:00.578Z,72.56
2022-09-15T07:46:32.320Z,72.60
2022-09-15T07:49:03.209Z,72.67
2022-09-15T07:51:37.313Z,72.68
2022-09-15T07:54:10.807Z,72.78
2022-09-15T07:56:39.624Z,72.89
2022-09-15T07:59:08.177Z,72.93
2022-09-15T08:01:36.208Z,72.91
2022-09-15T08:04:04.046Z,72.77
2022-09-15T08:06:31.951Z,72.71
2022-09-15T08:09:01.003Z,72.90
2022-09-15T08:11:30.073Z,72.94
2022-09-15T08:14:02.588Z,73.09
2022-09-15T08:16:31.068Z,73.18
2022-09-15T08:18:59.291Z,73.22
2022-09-15T08:21:28.410Z,73.37
2022-09-15T08:23:58.867Z,73.36
2022-09-15T08:26:29.091Z,73.23
2022-09-15T08:28:58.132Z,72.81
2022-09-15T08:31:26.374Z,72.72
2022-09-15T08:33:56.155Z,72.63
2022-09-15T08:36:28.097Z,72.61
2022-09-15T08:38:56.790Z,72.56
2022-09-15T08:41:35.516Z,72.54
2022-09-15T08:44:22.721Z,72.65
2022-09-15T08:47:06.836Z,72.66
2022-09-15T08:49:51.590Z,72.65
2022-09-15T08:52:28.277Z,72.73
2022-09-15T08:54:58.354Z,72.66
2022-09-15T08:57:26.426Z,72.58
2022-09-15T08:59:55.011Z,72.38
2022-09-15T09:02:44.339Z,72.44
2022-09-15T09:05:29.612Z,72.52
2022-09-15T09:08:45.817Z,72.41
2022-09-15T09:11:38.061Z,72.37
2022-09-15T09:14:20.285Z,72.48
2022-09-15T09:17:25.757Z,72.54
2022-09-15T09:20:11.106Z,72.73
2022-09-15T09:22:43.996Z,72.82
2022-09-15T09:25:27.284Z,72.61
2022-09-15T09:27:58.472Z,72.42
2022-09-15T09:30:31.161Z,72.50
2022-09-15T09:33:18.457Z,72.58
2022-09-15T09:35:51.571Z,72.68
2022-09-15T09:38:27.572Z,72.47
2022-09-15T09:40:59.981Z,72.21
2022-09-15T09:43:31.246Z,71.85
2022-09-15T09:45:59.378Z,71.72
2022-09-15T09:48:28.787Z,71.99
2022-09-15T09:50:56.867Z,71.90
2022-09-15T09:53:31.189Z,71.88
2022-09-15T09:56:24.113Z,71.47
2022-09-15T09:58:54.305Z,71.61
2022-09-15T10:01:25.445Z,71.63
2022-09-15T10:04:17.669Z,71.26
2022-09-15T10:06:46.700Z,70.96
2022-09-15T10:09:19.513Z,71.05
2022-09-15T10:12:00.248Z,70.68
2022-09-15T10:14:30.231Z,69.69
2022-09-15T10:17:19.669Z,69.94
2022-09-15T10:19:56.021Z,69.75
2022-09-15T10:22:23.695Z,69.65
2022-09-15T10:24:51.616Z,69.24
2022-09-15T10:27:34.601Z,69.17
2022-09-15T10:30:14.848Z,68.77
2022-09-15T10:32:43.324Z,68.52
2022-09-15T10:35:18.804Z,68.93
2022-09-15T10:38:11.909Z,68.88
2022-09-15T10:41:01.521Z,68.52
2022-09-15T10:43:46.929Z,67.94
2022-09-15T10:46:28.462Z,67.22
2022-09-15T10:49:30.096Z,67.21
2022-09-15T10:52:24.481Z,66.88
2022-09-15T10:55:48.882Z,67.14
2022-09-15T10:58:31.203Z,66.84
2022-09-15T11:01:23.452Z,66.13
2022-09-15T11:04:18.443Z,66.30
2022-09-15T11:07:05.477Z,66.09
2022-09-15T11:10:03.292Z,66.11
2022-09-15T11:12:54.412Z,66.27
2022-09-15T11:15:38.244Z,66.66
2022-09-15T11:18:15.239Z,66.20
2022-09-15T11:21:01.671Z,65.96
2022-09-15T11:23:32.892Z,64.88
2022-09-15T11:26:09.919Z,63.22
2022-09-15T11:28:51.133Z,63.24
2022-09-15T11:31:27.331Z,62.71
2022-09-15T11:34:15.718Z,61.67
2022-09-15T11:36:51.089Z,61.05
2022-09-15T11:39:19.567Z,60.66
2022-09-15T11:42:08.551Z,60.78
2022-09-15T11:44:42.950Z,60.63
2022-09-15T11:47:23.026Z,60.26
2022-09-15T11:50:03.012Z,60.49
2022-09-15T11:52:49.545Z,59.86
2022-09-15T11:55:27.125Z,58.92
2022-09-15T11:58:23.057Z,57.93
2022-09-15T12:01:00.844Z,57.64
2022-09-15T12:03:50.696Z,56.12
2022-09-15T12:06:45.599Z,54.92
2022-09-15T12:09:18.784Z,54.95
2022-09-15T12:11:49.230Z,55.00
2022-09-15T12:14:49.190Z,54.92
2022-09-15T12:17:21.846Z,55.06
2022-09-15T12:20:00.354Z,54.62
2022-09-15T12:22:35.121Z,54.01
2022-09-15T12:25:13.746Z,54.07
2022-09-15T12:27:41.811Z,54.55
2022-09-15T12:30:40.844Z,54.02
2022-09-15T12:33:42.689Z,53.69
2022-09-15T12:36:49.640Z,53.66
2022-09-15T12:39:37.463Z,54.08
2022-09-15T12:42:25.077Z,54.25
2022-09-15T12:44:57.715Z,53.14
2022-09-15T12:47:49.219Z,51.99
2022-09-15T12:50:17.091Z,51.19
2022-09-15T12:52:57.287Z,50.76
2022-09-15T12:55:29.746Z,50.84
2022-09-15T12:58:26.848Z,51.28
2022-09-15T13:01:26.356Z,51.20
2022-09-15T13:04:00.709Z,51.43
2022-09-15T13:06:34.213Z,51.91
2022-09-15T13:09:05.400Z,52.27
2022-09-15T13:11:34.832Z,52.45
2022-09-15T13:14:12.806Z,52.70
2022-09-15T13:16:40.726Z,52.96
2022-09-15T13:19:36.072Z,53.36
2022-09-15T13:22:12.501Z,53.51
2022-09-15T13:25:01.585Z,53.02
2022-09-15T13:27:37.886Z,53.20
2022-09-15T13:30:14.610Z,52.22
2022-09-15T13:33:04.401Z,50.46
2022-09-15T13:36:00.135Z,49.11
2022-09-15T13:38:49.341Z,50.59
2022-09-15T13:41:25.947Z,51.28
2022-09-15T13:44:15.561Z,50.78
2022-09-15T13:47:14.686Z,51.64
2022-09-15T13:50:19.529Z,51.33
2022-09-15T13:53:05.716Z,50.71
2022-09-15T13:55:43.171Z,51.92
2022-09-15T14:01:07.076Z,52.25
2022-09-15T14:04:05.260Z,52.87
2022-09-15T14:06:40.499Z,53.48
2022-09-15T14:09:26.790Z,53.83
2022-09-15T14:11:59.401Z,53.74
2022-09-15T14:14:27.264Z,53.63
2022-09-15T14:16:56.976Z,53.92
2022-09-15T14:19:25.064Z,54.31
2022-09-15T14:21:58.260Z,54.65
2022-09-15T14:24:30.152Z,54.58
2022-09-15T14:27:09.810Z,54.75
2022-09-15T14:29:42.789Z,54.59
2022-09-15T14:32:16.377Z,54.75
2022-09-15T14:37:24.406Z,54.95
2022-09-15T14:39:57.307Z,54.94
2022-09-15T14:42:32.553Z,55.29
2022-09-15T14:48:18.384Z,55.57
2022-09-15T14:51:00.620Z,56.08
2022-09-15T14:53:33.741Z,56.35
2022-09-15T14:56:17.838Z,56.58
2022-09-15T14:58:51.994Z,56.52
2022-09-15T15:01:23.400Z,56.49
2022-09-15T15:04:28.163Z,56.30
2022-09-15T15:07:22.819Z,56.51
2022-09-15T15:09:56.591Z,56.90
2022-09-15T15:12:27.872Z,57.51
2022-09-15T15:14:56.431Z,57.87
2022-09-15T15:17:35.943Z,57.90
2022-09-15T15:20:09.688Z,57.83
2022-09-15T15:22:38.848Z,57.79
2022-09-15T15:25:28.882Z,57.30
2022-09-15T15:27:58.481Z,57.33
2022-09-15T15:30:44.137Z,57.26
2022-09-15T15:33:28.143Z,56.88
2022-09-15T15:36:09.738Z,57.07
2022-09-15T15:38:47.243Z,57.12
2022-09-15T15:41:28.628Z,57.56
2022-09-15T15:44:27.890Z,57.64
2022-09-15T15:47:02.542Z,57.78
2022-09-15T15:49:32.724Z,57.78
2022-09-15T15:52:01.887Z,57.93
2022-09-15T15:54:29.909Z,58.20
2022-09-15T15:57:20.925Z,58.37
2022-09-15T15:59:48.806Z,58.53
2022-09-15T16:02:16.739Z,58.42
2022-09-15T16:04:44.635Z,58.45
2022-09-15T16:07:17.994Z,58.33
2022-09-15T16:09:47.039Z,58.33
2022-09-15T16:12:16.603Z,58.14
2022-09-15T16:14:44.571Z,58.32
2022-09-15T16:17:12.791Z,58.41
2022-09-15T16:19:40.727Z,58.53
2022-09-15T16:22:17.945Z,58.71
2022-09-15T16:24:46.788Z,58.84
2022-09-15T16:27:16.807Z,59.00
2022-09-15T16:29:45.536Z,58.95
2022-09-15T16:32:22.781Z,59.20
2022-09-15T16:34:52.718Z,59.37
2022-09-15T16:37:22.092Z,59.60
2022-09-15T16:39:52.210Z,59.86
2022-09-15T16:42:20.174Z,60.04
2022-09-15T16:44:48.071Z,60.03
2022-09-15T16:47:16.178Z,60.15
2022-09-15T16:49:44.045Z,60.21
2022-09-15T16:52:13.552Z,60.31
2022-09-15T16:54:41.856Z,60.24
2022-09-15T16:57:09.723Z,60.31
2022-09-15T16:59:37.531Z,60.35
2022-09-15T17:02:13.621Z,60.46
2022-09-15T17:04:41.518Z,60.47
2022-09-15T17:07:09.427Z,60.57
2022-09-15T17:09:37.311Z,60.64
2022-09-15T17:12:05.433Z,60.58
2022-09-15T17:14:33.382Z,60.67
2022-09-15T17:17:01.341Z,60.67
2022-09-15T17:19:29.253Z,60.76
2022-09-15T17:21:57.111Z,60.82
2022-09-15T17:24:24.979Z,60.97
2022-09-15T17:26:53.391Z,61.18
2022-09-15T17:29:21.724Z,61.36
2022-09-15T17:31:49.645Z,61.47
2022-09-15T17:34:17.694Z,61.50
2022-09-15T17:36:45.589Z,61.87
2022-09-15T17:39:13.495Z,62.11
2022-09-15T17:41:41.447Z,62.43
2022-09-15T17:44:11.398Z,62.77
2022-09-15T17:46:39.354Z,63.22
2022-09-15T17:49:07.256Z,63.53
2022-09-15T17:51:35.238Z,63.74
2022-09-15T17:54:03.495Z,63.95
2022-09-15T17:56:31.362Z,64.23
2022-09-15T17:58:59.239Z,64.55
2022-09-15T18:01:27.213Z,64.75
2022-09-15T18:03:55.187Z,65.03
2022-09-15T18:06:23.103Z,65.31
2022-09-15T18:08:51.227Z,65.45
2022-09-15T18:11:19.183Z,65.86
2022-09-15T18:13:47.024Z,66.07
2022-09-15T18:16:15.046Z,66.17
2022-09-15T18:18:43.382Z,66.11
2022-09-15T18:21:25.810Z,66.20
2022-09-15T18:23:53.701Z,66.34
2022-09-15T18:26:26.303Z,66.26
2022-09-15T18:28:55.211Z,66.27
2022-09-15T18:31:23.614Z,66.12
2022-09-15T18:33:51.552Z,65.93
2022-09-15T18:36:20.777Z,65.73
2022-09-15T18:38:48.678Z,65.63
2022-09-15T18:41:16.640Z,65.74
2022-09-15T18:43:48.862Z,65.68
2022-09-15T18:46:17.850Z,65.68
2022-09-15T18:48:45.797Z,65.50
2022-09-15T18:51:23.402Z,65.48
2022-09-15T18:53:54.380Z,65.41
2022-09-15T18:56:22.923Z,65.42
2022-09-15T18:58:53.998Z,65.52
2022-09-15T19:01:22.606Z,65.72
2022-09-15T19:03:50.798Z,65.89
2022-09-15T19:06:18.774Z,65.99
2022-09-15T19:08:46.791Z,66.17
2022-09-15T19:11:15.054Z,66.21
2022-09-15T19:13:43.198Z,66.21
2022-09-15T19:16:11.510Z,66.22
2022-09-15T19:18:39.435Z,66.22
2022-09-15T19:21:12.027Z,66.34
2022-09-15T19:23:40.151Z,66.45
2022-09-15T19:26:15.736Z,66.38
2022-09-15T19:28:44.963Z,66.31
2022-09-15T19:31:13.747Z,66.37
2022-09-15T19:33:42.198Z,66.50
2022-09-15T19:36:27.563Z,66.53
2022-09-15T19:38:57.713Z,66.40
2022-09-15T19:41:26.918Z,66.64
2022-09-15T19:43:56.599Z,66.57
2022-09-15T19:46:25.752Z,67.05
2022-09-15T19:48:54.155Z,67.18
2022-09-15T19:51:22.296Z,67.62
2022-09-15T19:53:55.014Z,68.03
2022-09-15T19:56:26.301Z,68.33
2022-09-15T19:58:56.474Z,68.54
2022-09-15T20:01:27.207Z,68.76
2022-09-15T20:03:57.008Z,68.83
2022-09-15T20:06:30.176Z,68.84
2022-09-15T20:09:00.480Z,68.76
2022-09-15T20:11:30.556Z,68.48
2022-09-15T20:13:59.168Z,68.43
2022-09-15T20:16:28.523Z,68.30
2022-09-15T20:18:56.797Z,68.21
2022-09-15T20:21:48.790Z,68.01
2022-09-15T20:24:17.002Z,67.89
2022-09-15T20:26:44.924Z,67.69
2022-09-15T20:29:13.265Z,67.65
2022-09-15T20:31:42.695Z,67.59
2022-09-15T20:34:10.743Z,67.54
2022-09-15T20:36:39.501Z,67.67
2022-09-15T20:39:10.931Z,67.70
2022-09-15T20:41:40.090Z,67.71
2022-09-15T20:44:10.956Z,67.79
2022-09-15T20:46:39.929Z,67.76
2022-09-15T20:49:09.085Z,67.81
2022-09-15T20:51:37.058Z,67.94
2022-09-15T20:54:05.841Z,68.09
2022-09-15T20:56:35.523Z,68.28
2022-09-15T20:59:05.964Z,68.55
2022-09-15T21:01:37.123Z,68.76
2022-09-15T21:04:08.468Z,69.02
2022-09-15T21:06:36.936Z,69.19
2022-09-15T21:09:06.463Z,69.35
2022-09-15T21:11:34.997Z,69.56
2022-09-15T21:14:03.368Z,69.54
2022-09-15T21:16:33.875Z,69.62
2022-09-15T21:19:02.019Z,69.73
2022-09-15T21:21:31.912Z,69.79
2022-09-15T21:24:03.946Z,69.76
2022-09-15T21:27:00.719Z,69.79
2022-09-15T21:29:29.556Z,69.83
2022-09-15T21:31:57.992Z,70.03
2022-09-15T21:34:26.412Z,70.04
2022-09-15T21:36:54.588Z,70.37
2022-09-15T21:39:23.149Z,70.48
2022-09-15T21:41:51.263Z,70.52
2022-09-15T21:44:19.282Z,70.71
2022-09-15T21:46:47.905Z,70.85
2022-09-15T21:49:18.073Z,70.89
2022-09-15T21:51:46.017Z,71.04
2022-09-15T21:54:14.340Z,71.21
2022-09-15T21:56:42.208Z,71.42
2022-09-15T21:59:10.715Z,71.53
2022-09-15T22:01:39.682Z,71.80
2022-09-15T22:04:09.019Z,72.00
2022-09-15T22:06:40.674Z,72.03
2022-09-15T22:09:13.104Z,72.23
2022-09-15T22:11:41.407Z,72.38
2022-09-15T22:14:10.429Z,72.58
2022-09-15T22:16:40.048Z,72.83
2022-09-15T22:19:10.274Z,72.84
2022-09-15T22:21:41.681Z,72.69
2022-09-15T22:24:12.072Z,72.81
2022-09-15T22:26:42.236Z,72.93
2022-09-15T22:29:11.241Z,72.97
2022-09-15T22:31:39.319Z,73.00
2022-09-15T22:34:07.283Z,73.07
2022-09-15T22:36:35.180Z,73.15
2022-09-15T22:39:05.527Z,73.16
2022-09-15T22:41:37.759Z,73.27
2022-09-15T22:44:07.314Z,73.35
2022-09-15T22:46:35.474Z,73.54
2022-09-15T22:49:03.485Z,73.69
2022-09-15T22:51:31.422Z,73.79
2022-09-15T22:54:03.010Z,73.98
2022-09-15T22:56:31.059Z,74.17
2022-09-15T22:58:59.412Z,74.35
2022-09-15T23:01:30.011Z,74.44
2022-09-15T23:04:01.131Z,74.68
2022-09-15T23:06:34.222Z,74.81
2022-09-15T23:09:06.357Z,74.96
2022-09-15T23:11:37.417Z,75.11
2022-09-15T23:14:07.685Z,75.29
2022-09-15T23:16:36.126Z,75.31
2022-09-15T23:19:05.358Z,75.48
2022-09-15T23:21:33.845Z,75.55
2022-09-15T23:24:01.971Z,75.59
2022-09-15T23:26:30.390Z,75.73
2022-09-15T23:28:58.176Z,75.91
2022-09-15T23:31:26.252Z,76.07
2022-09-15T23:33:54.202Z,75.96
2022-09-15T23:36:22.290Z,75.93
2022-09-15T23:38:50.275Z,75.86
2022-09-15T23:41:18.439Z,75.67
2022-09-15T23:43:46.761Z,75.46
2022-09-15T23:46:17.047Z,74.90
2022-09-15T23:48:45.077Z,74.66
2022-09-15T23:51:13.071Z,74.55
2022-09-15T23:53:41.096Z,74.26
2022-09-15T23:56:08.921Z,74.08
2022-09-15T23:58:37.365Z,73.89
